createdAt,value
2023-04-30T00:02:01.353Z,6.00
2023-04-30T00:04:29.305Z,7.43
2023-04-30T00:06:57.236Z,5.93
2023-04-30T00:09:25.155Z,5.80
2023-04-30T00:11:54.349Z,5.47
2023-04-30T00:14:22.355Z,6.70
2023-04-30T00:16:50.268Z,6.87
2023-04-30T00:19:18.301Z,5.97
2023-04-30T00:21:46.476Z,6.00
2023-04-30T00:24:14.341Z,5.40
2023-04-30T00:26:43.811Z,6.93
2023-04-30T00:29:13.320Z,6.47
2023-04-30T00:31:44.466Z,6.13
2023-04-30T00:34:12.373Z,6.00
2023-04-30T00:36:40.537Z,6.37
2023-04-30T00:39:08.626Z,6.00
2023-04-30T00:41:37.077Z,6.27
2023-04-30T00:44:06.499Z,6.13
2023-04-30T00:46:35.730Z,7.00
2023-04-30T00:49:05.026Z,6.57
2023-04-30T00:51:34.216Z,6.50
2023-04-30T00:54:03.639Z,8.03
2023-04-30T00:56:32.753Z,8.00
2023-04-30T00:59:01.259Z,8.67
2023-04-30T01:01:30.676Z,8.27
2023-04-30T01:04:00.958Z,8.50
2023-04-30T01:06:29.595Z,7.83
2023-04-30T01:08:58.169Z,8.03
2023-04-30T01:11:40.230Z,8.17
2023-04-30T01:14:18.580Z,8.50
2023-04-30T01:17:01.018Z,8.10
2023-04-30T01:19:41.753Z,8.20
2023-04-30T01:22:21.095Z,8.20
2023-04-30T01:25:15.078Z,8.37
2023-04-30T01:28:10.414Z,8.37
2023-04-30T01:30:40.719Z,7.57
2023-04-30T01:33:09.232Z,8.37
2023-04-30T01:36:08.740Z,7.77
2023-04-30T01:39:07.423Z,8.33
2023-04-30T01:41:43.013Z,8.37
2023-04-30T01:44:42.085Z,7.87
2023-04-30T01:47:34.690Z,8.70
2023-04-30T01:50:20.538Z,8.50
2023-04-30T01:52:53.389Z,9.43
2023-04-30T01:55:29.709Z,9.73
2023-04-30T01:58:00.426Z,9.57
2023-04-30T02:00:31.574Z,8.97
2023-04-30T02:03:00.126Z,8.57
2023-04-30T02:05:28.817Z,6.80
2023-04-30T02:07:57.289Z,6.60
2023-04-30T02:10:27.315Z,6.17
2023-04-30T02:12:55.206Z,5.40
2023-04-30T02:15:23.375Z,3.80
2023-04-30T02:17:52.613Z,4.57
2023-04-30T02:20:21.485Z,3.00
2023-04-30T02:22:49.719Z,3.30
2023-04-30T02:25:17.966Z,3.43
2023-04-30T02:27:46.136Z,3.37
2023-04-30T02:30:14.121Z,3.23
2023-04-30T02:32:42.039Z,3.23
2023-04-30T02:35:12.174Z,3.13
2023-04-30T02:37:40.076Z,3.10
2023-04-30T02:40:10.383Z,3.40
2023-04-30T02:42:38.530Z,3.37
2023-04-30T02:45:10.554Z,3.70
2023-04-30T02:47:38.497Z,4.03
2023-04-30T02:50:08.292Z,4.00
2023-04-30T02:52:37.520Z,4.23
2023-04-30T02:55:06.300Z,4.70
2023-04-30T02:57:34.184Z,4.87
2023-04-30T03:00:02.253Z,5.57
2023-04-30T03:02:30.298Z,5.10
2023-04-30T03:04:58.314Z,5.10
2023-04-30T03:07:26.179Z,4.47
2023-04-30T03:09:55.570Z,4.50
2023-04-30T03:12:23.865Z,4.63
2023-04-30T03:14:52.280Z,4.97
2023-04-30T03:17:20.491Z,5.27
2023-04-30T03:19:48.396Z,4.57
2023-04-30T03:22:16.352Z,5.00
2023-04-30T03:24:44.531Z,5.03
2023-04-30T03:27:14.211Z,4.67
2023-04-30T03:29:42.101Z,4.70
2023-04-30T03:32:10.046Z,4.53
2023-04-30T03:34:39.086Z,4.33
2023-04-30T03:37:07.071Z,4.50
2023-04-30T03:39:34.945Z,5.20
2023-04-30T03:42:03.740Z,5.07
2023-04-30T03:44:33.320Z,5.00
2023-04-30T03:47:01.509Z,5.50
2023-04-30T03:49:29.438Z,5.87
2023-04-30T03:51:57.344Z,5.97
2023-04-30T03:54:25.488Z,5.27
2023-04-30T03:56:53.466Z,5.50
2023-04-30T03:59:21.623Z,5.07
2023-04-30T04:01:51.037Z,4.27
2023-04-30T04:04:19.138Z,5.00
2023-04-30T04:06:47.112Z,5.20
2023-04-30T04:09:15.117Z,5.13
2023-04-30T04:11:46.909Z,4.73
2023-04-30T04:14:15.021Z,4.33
2023-04-30T04:16:43.216Z,4.00
2023-04-30T04:19:13.766Z,4.03
2023-04-30T04:21:41.852Z,3.93
2023-04-30T04:24:15.546Z,3.30
2023-04-30T04:26:44.005Z,3.07
2023-04-30T04:29:13.370Z,3.37
2023-04-30T04:31:45.105Z,3.03
2023-04-30T04:34:14.696Z,3.07
2023-04-30T04:36:42.582Z,3.20
2023-04-30T04:39:11.870Z,2.20
2023-04-30T04:41:40.003Z,2.53
2023-04-30T04:44:08.860Z,2.73
2023-04-30T04:46:38.667Z,2.50
2023-04-30T04:49:06.774Z,2.20
2023-04-30T04:51:36.036Z,2.47
2023-04-30T04:54:04.619Z,2.33
2023-04-30T04:56:32.510Z,2.03
2023-04-30T04:59:00.827Z,2.40
2023-04-30T05:01:29.551Z,2.33
2023-04-30T05:03:57.634Z,2.37
2023-04-30T05:06:25.727Z,2.53
2023-04-30T05:08:55.450Z,2.83
2023-04-30T05:11:23.634Z,2.50
2023-04-30T05:13:53.125Z,2.00
2023-04-30T05:16:21.377Z,2.40
2023-04-30T05:18:49.283Z,2.10
2023-04-30T05:21:17.453Z,2.20
2023-04-30T05:23:45.836Z,2.10
2023-04-30T05:26:15.039Z,2.30
2023-04-30T05:28:43.006Z,2.40
2023-04-30T05:31:10.888Z,2.30
2023-04-30T05:33:40.716Z,2.57
2023-04-30T05:36:08.803Z,2.50
2023-04-30T05:38:36.718Z,2.13
2023-04-30T05:41:05.075Z,2.17
2023-04-30T05:43:34.625Z,2.20
2023-04-30T05:46:02.968Z,2.27
2023-04-30T05:48:31.501Z,2.47
2023-04-30T05:50:59.362Z,2.20
2023-04-30T05:53:27.568Z,2.40
2023-04-30T05:55:55.492Z,2.23
2023-04-30T05:58:23.706Z,2.63
2023-04-30T06:00:53.704Z,2.47
2023-04-30T06:03:22.231Z,2.30
2023-04-30T06:05:50.244Z,2.83
2023-04-30T06:08:18.417Z,2.53
2023-04-30T06:10:46.774Z,2.40
2023-04-30T06:13:15.331Z,2.57
2023-04-30T06:15:43.307Z,2.03
2023-04-30T06:18:16.601Z,2.37
2023-04-30T06:20:44.534Z,2.27
2023-04-30T06:23:12.825Z,2.23
2023-04-30T06:25:40.814Z,2.70
2023-04-30T06:28:09.975Z,2.27
2023-04-30T06:30:38.308Z,2.77
2023-04-30T06:33:06.256Z,2.20
2023-04-30T06:35:35.980Z,2.20
2023-04-30T06:38:04.055Z,2.23
2023-04-30T06:40:31.950Z,3.00
2023-04-30T06:42:59.995Z,2.50
2023-04-30T06:45:29.113Z,2.80
2023-04-30T06:47:57.630Z,2.67
2023-04-30T06:50:26.360Z,2.80
2023-04-30T06:52:55.755Z,2.50
2023-04-30T06:55:24.254Z,2.33
2023-04-30T06:57:52.505Z,2.93
2023-04-30T07:00:20.396Z,2.40
2023-04-30T07:02:52.027Z,2.63
2023-04-30T07:05:20.022Z,1.80
2023-04-30T07:07:49.139Z,2.30
2023-04-30T07:10:18.653Z,2.17
2023-04-30T07:12:46.567Z,2.33
2023-04-30T07:15:14.812Z,2.27
2023-04-30T07:17:42.930Z,2.40
2023-04-30T07:20:14.429Z,2.30
2023-04-30T07:22:44.412Z,2.23
2023-04-30T07:25:12.527Z,2.60
2023-04-30T07:27:42.472Z,2.30
2023-04-30T07:30:11.074Z,2.50
2023-04-30T07:32:42.679Z,2.33
2023-04-30T07:35:11.161Z,2.63
2023-04-30T07:37:41.136Z,2.40
2023-04-30T07:40:15.450Z,2.27
2023-04-30T07:42:48.642Z,2.60
2023-04-30T07:45:16.666Z,2.27
2023-04-30T07:47:44.650Z,2.10
2023-04-30T07:50:14.797Z,2.27
2023-04-30T07:52:43.217Z,2.30
2023-04-30T07:55:11.274Z,2.07
2023-04-30T07:57:39.218Z,2.00
2023-04-30T08:00:10.275Z,1.80
2023-04-30T08:02:42.479Z,2.27
2023-04-30T08:05:11.288Z,1.93
2023-04-30T08:07:39.669Z,2.10
2023-04-30T08:10:08.993Z,2.40
2023-04-30T08:12:37.917Z,2.03
2023-04-30T08:15:08.912Z,2.57
2023-04-30T08:17:37.305Z,2.10
2023-04-30T08:20:07.849Z,2.80
2023-04-30T08:22:36.331Z,2.03
2023-04-30T08:25:04.402Z,1.93
2023-04-30T08:27:33.154Z,2.00
2023-04-30T08:30:01.366Z,2.00
2023-04-30T08:32:30.701Z,2.60
2023-04-30T08:34:58.594Z,2.70
2023-04-30T08:37:26.493Z,2.10
2023-04-30T08:39:54.629Z,2.33
2023-04-30T08:42:30.797Z,1.83
2023-04-30T08:45:01.461Z,2.20
2023-04-30T08:47:31.666Z,1.97
2023-04-30T08:50:00.318Z,2.30
2023-04-30T08:52:30.931Z,2.30
2023-04-30T08:55:02.423Z,2.60
2023-04-30T08:57:30.620Z,2.10
2023-04-30T08:59:58.556Z,2.40
2023-04-30T09:02:26.658Z,2.30
2023-04-30T09:04:56.282Z,2.33
2023-04-30T09:07:27.964Z,2.40
2023-04-30T09:09:56.197Z,2.20
2023-04-30T09:12:24.354Z,2.27
2023-04-30T09:15:04.448Z,2.47
2023-04-30T09:17:34.250Z,2.27
2023-04-30T09:20:11.506Z,2.40
2023-04-30T09:22:41.934Z,2.43
2023-04-30T09:25:11.960Z,2.40
2023-04-30T09:27:39.906Z,2.43
2023-04-30T09:30:09.918Z,2.90
2023-04-30T09:32:56.024Z,2.30
2023-04-30T09:35:32.814Z,2.47
2023-04-30T09:38:02.132Z,2.23
2023-04-30T09:40:41.727Z,2.07
2023-04-30T09:43:10.253Z,2.30
2023-04-30T09:45:43.015Z,2.30
2023-04-30T09:48:17.272Z,2.33
2023-04-30T09:50:47.409Z,2.30
2023-04-30T09:53:17.835Z,1.90
2023-04-30T09:55:48.920Z,2.33
2023-04-30T09:58:19.643Z,2.37
2023-04-30T10:00:49.497Z,2.53
2023-04-30T10:03:17.620Z,2.23
2023-04-30T10:05:49.377Z,2.50
2023-04-30T10:08:27.829Z,2.47
2023-04-30T10:11:04.622Z,2.13
2023-04-30T10:13:38.800Z,2.30
2023-04-30T10:16:18.565Z,2.63
2023-04-30T10:18:52.953Z,2.70
2023-04-30T10:21:26.817Z,2.37
2023-04-30T10:23:56.180Z,2.50
2023-04-30T10:26:24.611Z,2.03
2023-04-30T10:28:55.104Z,2.23
2023-04-30T10:31:23.620Z,2.23
2023-04-30T10:34:09.464Z,2.30
2023-04-30T10:36:44.995Z,2.43
2023-04-30T10:39:14.006Z,1.90
2023-04-30T10:41:46.145Z,2.00
2023-04-30T10:44:14.161Z,2.00
2023-04-30T10:46:42.829Z,2.60
2023-04-30T10:49:14.461Z,1.93
2023-04-30T10:51:54.182Z,2.07
2023-04-30T10:54:28.610Z,2.23
2023-04-30T10:57:12.648Z,2.60
2023-04-30T10:59:46.734Z,2.13
2023-04-30T11:02:18.086Z,1.87
2023-04-30T11:05:12.784Z,2.20
2023-04-30T11:07:50.429Z,2.23
2023-04-30T11:10:23.424Z,2.40
2023-04-30T11:12:53.760Z,2.27
2023-04-30T11:15:26.322Z,2.07
2023-04-30T11:17:59.391Z,1.67
2023-04-30T11:20:28.691Z,1.80
2023-04-30T11:23:19.566Z,1.87
2023-04-30T11:25:57.749Z,1.97
2023-04-30T11:28:28.390Z,1.93
2023-04-30T11:30:58.425Z,1.83
2023-04-30T11:33:28.848Z,2.70
2023-04-30T11:35:58.716Z,2.00
2023-04-30T11:38:31.216Z,1.80
2023-04-30T11:41:00.527Z,1.93
2023-04-30T11:43:31.151Z,2.10
2023-04-30T11:46:09.168Z,1.60
2023-04-30T11:48:39.958Z,2.13
2023-04-30T11:51:16.983Z,2.70
2023-04-30T11:53:48.639Z,1.80
2023-04-30T11:56:20.498Z,1.53
2023-04-30T11:58:49.969Z,1.90
2023-04-30T12:01:18.882Z,2.67
2023-04-30T12:03:49.813Z,1.57
2023-04-30T12:06:24.789Z,1.80
2023-04-30T12:08:55.870Z,2.17
2023-04-30T12:11:25.879Z,1.50
2023-04-30T12:14:03.292Z,1.90
2023-04-30T12:16:44.187Z,2.00
2023-04-30T12:19:13.082Z,2.27
2023-04-30T12:21:46.496Z,1.93
2023-04-30T12:24:17.645Z,2.17
2023-04-30T12:26:47.966Z,1.93
2023-04-30T12:29:18.325Z,2.53
2023-04-30T12:31:50.840Z,1.90
2023-04-30T12:34:18.995Z,2.13
2023-04-30T12:36:46.929Z,7.00
2023-04-30T12:39:17.478Z,2.20
2023-04-30T12:41:47.481Z,1.90
2023-04-30T12:44:21.232Z,1.87
2023-04-30T12:46:51.302Z,1.70
2023-04-30T12:49:27.333Z,1.60
2023-04-30T12:52:01.272Z,1.80
2023-04-30T12:54:33.430Z,1.73
2023-04-30T12:57:04.191Z,2.27
2023-04-30T12:59:34.203Z,2.10
2023-04-30T13:02:14.683Z,2.13
2023-04-30T13:04:44.007Z,1.90
2023-04-30T13:07:12.506Z,1.90
2023-04-30T13:09:41.965Z,2.10
2023-04-30T13:12:10.045Z,2.00
2023-04-30T13:14:37.923Z,2.13
2023-04-30T13:17:07.480Z,2.37
2023-04-30T13:19:35.508Z,2.17
2023-04-30T13:22:03.409Z,1.63
2023-04-30T13:24:31.596Z,2.03
2023-04-30T13:27:02.622Z,2.30
2023-04-30T13:29:31.722Z,1.53
2023-04-30T13:31:59.737Z,1.60
2023-04-30T13:34:27.717Z,1.60
2023-04-30T13:36:55.646Z,2.00
2023-04-30T13:39:23.876Z,1.73
2023-04-30T13:41:51.793Z,1.47
2023-04-30T13:44:20.989Z,1.73
2023-04-30T13:46:48.912Z,2.10
2023-04-30T13:49:16.957Z,1.97
2023-04-30T13:51:44.902Z,2.03
2023-04-30T13:54:12.778Z,1.80
2023-04-30T13:56:40.890Z,1.77
2023-04-30T13:59:08.975Z,1.70
2023-04-30T14:01:38.178Z,1.67
2023-04-30T14:04:06.419Z,1.80
2023-04-30T14:06:34.727Z,1.67
2023-04-30T14:09:02.821Z,1.90
2023-04-30T14:11:30.828Z,1.87
2023-04-30T14:13:58.741Z,1.77
2023-04-30T14:16:27.360Z,1.87
2023-04-30T14:18:56.650Z,1.90
2023-04-30T14:21:24.520Z,1.90
2023-04-30T14:23:52.369Z,1.70
2023-04-30T14:26:21.566Z,1.90
2023-04-30T14:28:49.614Z,2.00
2023-04-30T14:31:17.602Z,1.67
2023-04-30T14:33:45.842Z,1.67
2023-04-30T14:36:15.066Z,1.70
2023-04-30T14:38:43.275Z,2.20
2023-04-30T14:41:11.268Z,1.70
2023-04-30T14:43:39.743Z,1.57
2023-04-30T14:46:08.192Z,2.03
2023-04-30T14:48:36.372Z,2.00
2023-04-30T14:51:04.540Z,1.60
2023-04-30T14:53:33.955Z,1.97
2023-04-30T14:56:01.956Z,1.70
2023-04-30T14:58:29.937Z,2.20
2023-04-30T15:00:57.806Z,1.60
2023-04-30T15:03:25.883Z,1.60
2023-04-30T15:05:54.047Z,1.73
2023-04-30T15:08:22.240Z,2.30
2023-04-30T15:10:52.022Z,2.00
2023-04-30T15:13:19.921Z,2.03
2023-04-30T15:15:49.589Z,1.60
2023-04-30T15:18:17.784Z,1.90
2023-04-30T15:20:45.699Z,1.80
2023-04-30T15:23:13.590Z,1.90
2023-04-30T15:25:43.065Z,2.13
2023-04-30T15:28:12.466Z,1.70
2023-04-30T15:30:40.748Z,2.20
2023-04-30T15:33:09.100Z,2.00
2023-04-30T15:35:37.345Z,1.83
2023-04-30T15:38:05.231Z,2.10
2023-04-30T15:40:37.434Z,2.37
2023-04-30T15:43:06.871Z,1.83
2023-04-30T15:45:36.720Z,1.87
2023-04-30T15:48:05.584Z,1.90
2023-04-30T15:50:33.865Z,1.93
2023-04-30T15:53:01.763Z,1.80
2023-04-30T15:55:30.722Z,1.93
2023-04-30T15:57:58.667Z,1.97
2023-04-30T16:00:27.186Z,3.83
2023-04-30T16:02:59.561Z,2.00
2023-04-30T16:05:27.711Z,1.90
2023-04-30T16:07:55.624Z,2.10
2023-04-30T16:10:23.664Z,1.93
2023-04-30T16:12:51.580Z,2.20
2023-04-30T16:15:19.667Z,2.03
2023-04-30T16:17:48.139Z,2.17
2023-04-30T16:20:17.429Z,1.93
2023-04-30T16:22:45.960Z,1.83
2023-04-30T16:25:13.825Z,2.13
2023-04-30T16:27:43.188Z,1.83
2023-04-30T16:30:11.978Z,1.90
2023-04-30T16:32:39.986Z,2.00
2023-04-30T16:35:09.452Z,1.83
2023-04-30T16:37:38.660Z,1.80
2023-04-30T16:40:08.377Z,1.90
2023-04-30T16:42:36.585Z,1.83
2023-04-30T16:45:04.955Z,2.03
2023-04-30T16:47:32.864Z,2.00
2023-04-30T16:50:01.107Z,2.50
2023-04-30T16:52:29.640Z,2.10
2023-04-30T16:54:59.013Z,2.13
2023-04-30T16:57:26.920Z,1.73
2023-04-30T16:59:54.949Z,2.13
2023-04-30T17:02:23.135Z,1.97
2023-04-30T17:04:51.089Z,1.93
2023-04-30T17:07:18.989Z,1.63
2023-04-30T17:09:47.681Z,2.27
2023-04-30T17:12:16.975Z,2.67
2023-04-30T17:14:44.875Z,2.00
2023-04-30T17:17:12.808Z,1.70
2023-04-30T17:19:41.023Z,2.00
2023-04-30T17:22:08.910Z,5.50
2023-04-30T17:24:36.829Z,2.10
2023-04-30T17:27:05.727Z,1.90
2023-04-30T17:29:34.946Z,2.10
2023-04-30T17:32:02.996Z,1.90
2023-04-30T17:34:31.110Z,1.93
2023-04-30T17:36:59.194Z,2.17
2023-04-30T17:39:28.741Z,2.10
2023-04-30T17:41:56.645Z,2.23
2023-04-30T17:44:24.537Z,2.67
2023-04-30T17:46:54.223Z,2.43
2023-04-30T17:49:22.127Z,2.93
2023-04-30T17:51:50.318Z,2.87
2023-04-30T17:54:18.576Z,2.80
2023-04-30T17:56:46.702Z,3.43
2023-04-30T17:59:17.250Z,2.77
2023-04-30T18:01:45.177Z,2.30
2023-04-30T18:04:20.654Z,2.50
2023-04-30T18:06:49.359Z,2.50
2023-04-30T18:09:17.273Z,2.80
2023-04-30T18:11:45.220Z,3.17
2023-04-30T18:14:13.232Z,3.90
2023-04-30T18:16:42.102Z,4.33
2023-04-30T18:19:10.015Z,4.50
2023-04-30T18:21:39.596Z,4.07
2023-04-30T18:24:07.510Z,4.20
2023-04-30T18:26:35.454Z,4.07
2023-04-30T18:29:03.556Z,5.47
2023-04-30T18:31:31.942Z,5.93
2023-04-30T18:33:59.893Z,5.07
2023-04-30T18:36:28.194Z,4.33
2023-04-30T18:38:57.389Z,7.00
2023-04-30T18:41:27.955Z,9.03
2023-04-30T18:43:55.846Z,9.27
2023-04-30T18:46:25.310Z,8.80
2023-04-30T18:48:53.359Z,8.80
2023-04-30T18:51:21.276Z,8.83
2023-04-30T18:53:50.560Z,9.53
2023-04-30T18:56:19.800Z,9.30
2023-04-30T18:58:48.008Z,9.90
2023-04-30T19:01:17.753Z,10.80
2023-04-30T19:03:45.746Z,11.03
2023-04-30T19:06:14.185Z,13.17
2023-04-30T19:08:44.875Z,14.37
2023-04-30T19:11:14.296Z,15.87
2023-04-30T19:13:43.977Z,13.97
2023-04-30T19:16:11.969Z,11.67
2023-04-30T19:18:39.909Z,10.60
2023-04-30T19:21:08.815Z,11.10
2023-04-30T19:23:36.714Z,11.13
2023-04-30T19:26:04.820Z,11.67
2023-04-30T19:28:32.790Z,11.70
2023-04-30T19:31:05.964Z,10.57
2023-04-30T19:33:38.234Z,10.70
2023-04-30T19:36:06.755Z,9.37
2023-04-30T19:38:34.932Z,9.73
2023-04-30T19:41:03.282Z,8.03
2023-04-30T19:43:31.501Z,14.20
2023-04-30T19:46:01.928Z,16.43
2023-04-30T19:48:32.043Z,15.87
2023-04-30T19:50:59.914Z,14.13
2023-04-30T19:53:29.086Z,12.57
2023-04-30T19:55:57.153Z,10.07
2023-04-30T19:58:25.029Z,9.67
2023-04-30T20:00:53.481Z,6.80
2023-04-30T20:03:25.110Z,5.70
2023-04-30T20:05:54.615Z,7.87
2023-04-30T20:08:22.909Z,7.50
2023-04-30T20:10:51.140Z,6.57
2023-04-30T20:13:20.905Z,6.17
2023-04-30T20:15:49.156Z,11.93
2023-04-30T20:18:20.066Z,12.17
2023-04-30T20:20:48.931Z,10.90
2023-04-30T20:23:20.311Z,8.87
2023-04-30T20:25:49.968Z,7.47
2023-04-30T20:28:19.063Z,6.17
2023-04-30T20:30:48.033Z,6.03
2023-04-30T20:33:16.448Z,6.23
2023-04-30T20:35:46.145Z,5.93
2023-04-30T20:38:16.292Z,7.30
2023-04-30T20:40:47.795Z,7.43
2023-04-30T20:43:15.740Z,5.93
2023-04-30T20:45:45.162Z,5.43
2023-04-30T20:48:13.959Z,6.67
2023-04-30T20:50:42.142Z,11.67
2023-04-30T20:53:11.655Z,12.03
2023-04-30T20:55:39.705Z,9.50
2023-04-30T20:58:09.099Z,9.00
2023-04-30T21:00:37.288Z,8.03
2023-04-30T21:03:05.969Z,8.27
2023-04-30T21:05:34.252Z,7.47
2023-04-30T21:08:02.295Z,6.93
2023-04-30T21:10:35.368Z,6.50
2023-04-30T21:13:05.818Z,4.97
2023-04-30T21:15:39.078Z,4.43
2023-04-30T21:18:07.202Z,3.90
2023-04-30T21:20:35.558Z,3.77
2023-04-30T21:23:03.654Z,4.43
2023-04-30T21:25:31.634Z,5.23
2023-04-30T21:27:59.949Z,4.77
2023-04-30T21:30:27.864Z,5.07
2023-04-30T21:32:58.949Z,5.73
2023-04-30T21:35:27.738Z,5.77
2023-04-30T21:37:55.911Z,5.27
2023-04-30T21:40:24.100Z,5.97
2023-04-30T21:42:52.888Z,5.30
2023-04-30T21:45:21.039Z,5.70
2023-04-30T21:47:49.168Z,5.33
2023-04-30T21:50:18.750Z,5.93
2023-04-30T21:52:46.858Z,5.97
2023-04-30T21:55:14.729Z,5.83
2023-04-30T21:57:42.628Z,6.03
2023-04-30T22:00:14.321Z,4.63
2023-04-30T22:02:48.923Z,5.23
2023-04-30T22:05:19.621Z,7.17
2023-04-30T22:07:47.858Z,7.50
2023-04-30T22:10:16.159Z,5.97
2023-04-30T22:12:47.362Z,6.37
2023-04-30T22:15:16.145Z,7.87
2023-04-30T22:17:46.116Z,7.87
2023-04-30T22:20:14.770Z,6.93
2023-04-30T22:22:44.032Z,6.53
2023-04-30T22:25:12.050Z,5.80
2023-04-30T22:27:39.943Z,6.20
2023-04-30T22:30:09.250Z,6.20
2023-04-30T22:32:37.196Z,4.80
2023-04-30T22:35:06.776Z,2.73
2023-04-30T22:37:38.473Z,3.43
2023-04-30T22:40:09.491Z,3.10
2023-04-30T22:42:37.871Z,3.10
2023-04-30T22:45:07.494Z,3.80
2023-04-30T22:47:35.620Z,4.13
2023-04-30T22:50:04.778Z,3.83
2023-04-30T22:52:33.193Z,3.60
2023-04-30T22:55:02.946Z,4.60
2023-04-30T22:57:32.228Z,4.70
2023-04-30T23:00:00.207Z,4.30
2023-04-30T23:02:28.608Z,5.87
2023-04-30T23:04:57.094Z,3.90
2023-04-30T23:07:25.115Z,4.00
2023-04-30T23:09:53.494Z,2.70
2023-04-30T23:12:22.415Z,2.87
2023-04-30T23:14:51.861Z,3.47
2023-04-30T23:17:20.125Z,3.43
2023-04-30T23:19:48.170Z,3.40
2023-04-30T23:22:16.607Z,4.10
2023-04-30T23:24:44.489Z,3.20
2023-04-30T23:27:12.725Z,3.00
2023-04-30T23:29:40.603Z,2.13
2023-04-30T23:32:09.923Z,2.70
2023-04-30T23:34:37.947Z,2.77
2023-04-30T23:37:05.828Z,3.00
2023-04-30T23:39:34.038Z,3.13
2023-04-30T23:42:02.472Z,2.80
2023-04-30T23:44:32.459Z,2.50
2023-04-30T23:47:01.294Z,2.37
2023-04-30T23:49:30.522Z,2.70
2023-04-30T23:51:58.428Z,2.57
2023-04-30T23:54:26.327Z,2.40
2023-04-30T23:56:54.318Z,2.60
2023-04-30T23:59:25.595Z,2.67
